Time;durP1;ratioP1;P1;durP2;ratioP2;P2;SDS_P1;SDS_P2;PMS_P1;PMS_P2;Temp;Humidity;BMP_temperature;BMP_pressure;BME280_temperature;BME280_humidity;BME280_pressure;Samples;Min_cycle;Max_cycle;Signal;HPM_P1;HPM_P2
2022/10/16 00:01:11;;;;;;;27.08;9.25;;;;;;;13.64;64.50;101356.66;4953591;29;20054;-83
2022/10/16 00:03:37;;;;;;;25.23;8.87;;;;;;;13.54;63.99;101336.81;4953307;29;20081;-83
2022/10/16 00:06:03;;;;;;;17.88;9.07;;;;;;;14.22;64.11;101444.63;4953638;28;20024;-82
2022/10/16 00:08:30;;;;;;;17.83;8.23;;;;;;;14.25;63.68;101449.78;4953474;29;20114;-83
2022/10/16 00:11:04;;;;;;;22.50;8.70;;;;;;;14.25;63.72;101457.91;4953595;29;20117;-83
2022/10/16 00:13:31;;;;;;;23.58;11.43;;;;;;;13.40;63.73;101315.44;4951670;29;20027;-83
2022/10/16 00:15:58;;;;;;;20.75;7.72;;;;;;;13.58;63.59;101349.06;4953075;28;20094;-82
2022/10/16 00:18:25;;;;;;;21.05;9.52;;;;;;;13.86;63.72;101397.19;4953328;29;20514;-84
2022/10/16 00:20:51;;;;;;;12.35;8.25;;;;;;;13.28;63.30;101301.13;4953676;29;20031;-82
2022/10/16 00:23:17;;;;;;;18.67;8.20;;;;;;;13.31;63.82;101316.22;4953992;29;20475;-84
2022/10/16 00:25:42;;;;;;;15.90;8.20;;;;;;;13.83;63.48;101400.13;4953800;29;20715;-83
2022/10/16 00:28:08;;;;;;;16.63;7.35;;;;;;;13.36;63.41;101324.81;4953559;29;20055;-83
2022/10/16 00:30:33;;;;;;;45.95;8.35;;;;;;;13.30;63.50;101319.91;4953059;29;20078;-84
2022/10/16 00:32:59;;;;;;;33.63;7.53;;;;;;;13.37;63.37;101330.09;4953135;29;20040;-82
2022/10/16 00:35:25;;;;;;;13.00;6.88;;;;;;;13.97;63.45;101424.22;4953607;29;20059;-83
2022/10/16 00:37:50;;;;;;;19.42;7.57;;;;;;;13.91;62.98;101421.97;4952336;29;20050;-83
2022/10/16 00:40:16;;;;;;;10.35;6.20;;;;;;;13.25;63.20;101306.78;4957601;28;20030;-82
2022/10/16 00:42:41;;;;;;;23.85;7.88;;;;;;;13.78;62.80;101398.81;4958681;29;20046;-83
2022/10/16 00:45:09;;;;;;;20.95;7.00;;;;;;;13.57;63.17;101377.97;4959318;29;20034;-84
2022/10/16 00:47:39;;;;;;;15.05;7.72;;;;;;;13.18;62.97;101318.22;4975015;28;20037;-92
2022/10/16 00:50:07;;;;;;;17.70;6.47;;;;;;;13.90;63.43;101447.34;4975830;28;20050;-85
2022/10/16 00:52:33;;;;;;;17.40;7.57;;;;;;;12.94;63.30;101294.00;4977174;28;20020;-85
2022/10/16 00:55:01;;;;;;;28.50;7.60;;;;;;;13.14;63.41;101341.03;4968969;29;20039;-82
2022/10/16 00:57:27;;;;;;;19.67;7.82;;;;;;;12.92;63.56;101321.13;4965848;29;20034;-89
2022/10/16 00:59:53;;;;;;;26.27;7.70;;;;;;;13.27;64.12;101385.00;4959620;29;20027;-82
2022/10/16 01:02:19;;;;;;;38.00;9.13;;;;;;;12.83;63.81;101335.38;4956695;29;20171;-82
2022/10/16 01:04:50;;;;;;;13.73;7.07;;;;;;;13.06;64.14;101380.28;4956879;28;20086;-83
2022/10/16 01:07:25;;;;;;;17.30;7.93;;;;;;;13.38;64.37;101437.19;4956053;29;20082;-83
2022/10/16 01:10:21;;;;;;;15.32;6.88;;;;;;;13.31;64.48;101440.50;4955998;29;20108;-84
2022/10/16 01:13:14;;;;;;;59.17;10.27;;;;;;;13.24;64.79;101452.78;4956105;29;20348;-83
2022/10/16 01:15:42;;;;;;;18.25;7.55;;;;;;;13.22;65.04;101452.03;4954974;29;20102;-83
2022/10/16 01:18:18;;;;;;;13.85;7.13;;;;;;;12.81;65.00;101404.81;4957622;29;20108;-83
2022/10/16 01:20:52;;;;;;;10.85;6.97;;;;;;;12.47;65.18;101355.31;4956717;29;20078;-84
2022/10/16 01:23:18;;;;;;;13.70;6.05;;;;;;;13.00;64.85;101432.09;4956375;29;20127;-83
2022/10/16 01:25:54;;;;;;;17.55;6.30;;;;;;;13.21;64.74;101461.97;4955153;28;20031;-82
2022/10/16 01:28:24;;;;;;;45.03;8.73;;;;;;;13.07;65.01;101445.97;4957027;29;20118;-86
2022/10/16 01:30:54;;;;;;;15.13;6.82;;;;;;;12.26;64.78;101299.47;4956187;29;20141;-86
2022/10/16 01:33:34;;;;;;;12.30;5.43;;;;;;;12.72;64.80;101389.31;4956340;29;20035;-81
2022/10/16 01:36:06;;;;;;;9.60;5.57;;;;;;;12.97;64.54;101428.75;4956686;28;20034;-83
2022/10/16 01:38:36;;;;;;;14.43;5.93;;;;;;;12.68;64.07;101371.69;4955934;29;20446;-83
2022/10/16 01:41:12;;;;;;;19.48;6.68;;;;;;;12.45;64.09;101345.59;4956369;29;20027;-82
2022/10/16 01:44:02;;;;;;;21.33;6.20;;;;;;;12.34;64.18;101307.81;4956179;29;20495;-85
2022/10/16 01:53:31;;;;;;;17.27;5.63;;;;;;;12.63;63.54;101373.84;4950816;29;20062;-84
2022/10/16 01:56:00;;;;;;;14.93;5.28;;;;;;;12.46;63.38;101341.94;4958520;29;20041;-83
2022/10/16 01:58:30;;;;;;;15.68;5.60;;;;;;;12.42;62.94;101333.22;4959671;29;20034;-83
2022/10/16 02:00:57;;;;;;;21.50;5.72;;;;;;;12.40;63.67;101331.63;4961832;28;20055;-83
2022/10/16 02:03:22;;;;;;;47.95;7.57;;;;;;;13.00;63.32;101426.69;4975861;28;20047;-83
2022/10/16 02:05:55;;;;;;;21.48;5.82;;;;;;;12.71;62.71;101392.16;4975808;28;20071;-84
2022/10/16 02:08:25;;;;;;;;;;;;;;;13.11;63.14;101482.59;4967608;28;20502;-82
2022/10/16 02:10:54;;;;;;;13.60;5.53;;;;;;;12.04;63.61;101331.78;4953668;29;19917;-85
2022/10/16 02:13:41;;;;;;;12.88;6.38;;;;;;;12.85;63.93;101484.59;4955208;29;20038;-84
2022/10/16 02:16:10;;;;;;;16.02;5.40;;;;;;;12.09;64.51;101361.91;4956236;28;20034;-86
2022/10/16 02:18:36;;;;;;;40.58;6.63;;;;;;;11.73;64.44;101328.69;4956214;29;20067;-84
2022/10/16 02:24:53;;;;;;;12.55;5.72;;;;;;;12.45;65.11;101486.78;4957273;29;20042;-83
2022/10/16 02:27:37;;;;;;;13.38;5.45;;;;;;;12.37;65.33;101493.72;4955378;28;20058;-84
2022/10/16 02:30:13;;;;;;;12.57;4.95;;;;;;;12.29;65.34;101513.16;4954185;29;20035;-83
2022/10/16 02:32:43;;;;;;;12.05;5.47;;;;;;;11.22;65.09;101340.59;4954991;29;20034;-83
2022/10/16 02:35:10;;;;;;;12.20;4.88;;;;;;;11.82;65.12;101457.38;4953604;29;20053;-84
2022/10/16 02:37:38;;;;;;;23.40;5.40;;;;;;;11.66;65.23;101445.97;4954855;29;20027;-83
2022/10/16 02:40:05;;;;;;;25.38;6.07;;;;;;;11.21;65.63;101374.75;4954574;29;20114;-84
2022/10/16 02:42:39;;;;;;;15.52;5.18;;;;;;;11.13;65.71;101366.34;4953404;29;20027;-85
2022/10/16 02:45:07;;;;;;;8.63;4.85;;;;;;;10.93;65.79;101359.69;4955430;29;20037;-85
2022/10/16 02:47:33;;;;;;;18.63;6.95;;;;;;;11.32;65.83;101414.34;4954617;28;20031;-83
2022/10/16 02:49:58;;;;;;;13.80;4.47;;;;;;;11.11;65.85;101384.44;4955129;29;20042;-83
2022/10/16 02:52:24;;;;;;;12.18;5.78;;;;;;;11.13;65.47;101387.03;4954552;29;20079;-84
2022/10/16 02:54:50;;;;;;;17.92;6.82;;;;;;;11.36;65.47;101434.72;4955046;29;20398;-83
2022/10/16 02:57:16;;;;;;;12.43;5.05;;;;;;;11.12;65.07;101414.91;4954491;29;20031;-83
2022/10/16 02:59:42;;;;;;;6.68;5.00;;;;;;;11.41;65.22;101441.47;4954658;29;20031;-83
2022/10/16 03:02:08;;;;;;;28.73;5.13;;;;;;;11.22;64.58;101408.75;4953241;28;20486;-84
2022/10/16 03:04:34;;;;;;;13.07;4.95;;;;;;;11.00;64.99;101372.72;4954713;29;20090;-83
2022/10/16 03:07:43;;;;;;;23.73;4.45;;;;;;;11.89;64.40;101517.97;4957120;29;20027;-83
2022/10/16 03:10:09;;;;;;;16.75;4.85;;;;;;;11.07;64.32;101382.94;4968324;29;20633;-89
2022/10/16 03:12:35;;;;;;;18.15;4.03;;;;;;;11.01;64.38;101371.75;4971946;29;20023;-84
2022/10/16 03:15:01;;;;;;;9.13;3.90;;;;;;;11.76;64.48;101497.38;4957977;29;20035;-84
2022/10/16 03:17:26;;;;;;;12.52;5.10;;;;;;;11.84;63.98;101498.53;4969507;28;20023;-91
2022/10/16 03:19:52;;;;;;;69.15;7.25;;;;;;;11.41;63.77;101408.28;4972217;28;20039;-95
2022/10/16 03:22:18;;;;;;;11.98;4.35;;;;;;;11.60;63.71;101435.63;4972705;28;20069;-83
2022/10/16 03:24:43;;;;;;;6.22;3.92;;;;;;;11.29;63.47;101396.56;4956137;29;20031;-84
2022/10/16 03:27:09;;;;;;;10.40;4.38;;;;;;;11.13;63.59;101370.88;4955209;29;20051;-84
2022/10/16 03:29:35;;;;;;;10.55;4.55;;;;;;;11.29;63.40;101382.25;4956223;29;20035;-82
2022/10/16 03:32:01;;;;;;;12.35;4.28;;;;;;;11.30;63.24;101400.13;4955019;29;20035;-84
2022/10/16 03:34:27;;;;;;;9.38;4.00;;;;;;;12.15;63.40;101531.34;4954750;29;20049;-83
2022/10/16 03:36:53;;;;;;;12.68;3.97;;;;;;;11.62;63.38;101441.75;4954044;29;20032;-84
2022/10/16 03:39:19;;;;;;;11.63;6.18;;;;;;;11.37;63.38;101401.44;4953785;29;20027;-84
2022/10/16 03:41:46;;;;;;;11.80;5.32;;;;;;;11.31;63.22;101399.19;4953636;29;20034;-83
2022/10/16 03:44:12;;;;;;;14.65;4.35;;;;;;;11.22;63.21;101375.59;4954555;29;20031;-83
2022/10/16 03:46:38;;;;;;;8.88;4.20;;;;;;;11.40;62.87;101402.06;4954492;29;20050;-83
2022/10/16 03:52:31;;;;;;;18.35;6.10;;;;;;;11.67;63.39;101461.16;4948745;29;20062;-84
2022/10/16 03:54:57;;;;;;;7.43;4.07;;;;;;;11.32;63.24;101400.88;4933611;29;20043;-86
2022/10/16 03:57:23;;;;;;;16.90;5.10;;;;;;;11.26;63.26;101387.84;4934253;29;20047;-84
2022/10/16 03:59:49;;;;;;;14.07;5.00;;;;;;;11.27;63.03;101386.91;4934148;29;20075;-84
2022/10/16 04:02:14;;;;;;;10.90;4.10;;;;;;;11.21;63.45;101390.03;4935397;29;20028;-85
2022/10/16 04:08:02;;;;;;;18.10;5.55;;;;;;;11.63;63.72;101472.25;4934079;29;20038;-84
2022/10/16 04:10:28;;;;;;;9.88;4.45;;;;;;;11.81;63.28;101496.06;4934449;29;20504;-83
2022/10/16 04:12:57;;;;;;;12.55;5.18;;;;;;;11.31;63.34;101416.16;4933601;29;20212;-84
2022/10/16 04:15:24;;;;;;;16.70;5.72;;;;;;;11.13;63.44;101393.25;4935365;29;20417;-82
2022/10/16 04:17:50;;;;;;;43.88;7.07;;;;;;;11.45;63.56;101444.81;4936969;29;20036;-83
2022/10/16 04:20:16;;;;;;;12.05;5.68;;;;;;;11.33;63.04;101416.94;4936904;29;20047;-85
2022/10/16 04:22:42;;;;;;;12.68;5.63;;;;;;;12.15;63.36;101550.22;4939246;29;20046;-83
2022/10/16 04:25:07;;;;;;;17.90;7.13;;;;;;;11.65;63.41;101460.38;4923163;29;20138;-83
2022/10/16 04:27:33;;;;;;;16.55;8.30;;;;;;;11.83;63.03;101499.50;4939549;29;20031;-81
2022/10/16 04:29:59;;;;;;;19.90;9.57;;;;;;;11.89;63.33;101499.09;4940108;29;20035;-83
2022/10/16 04:32:26;;;;;;;50.75;9.93;;;;;;;11.85;63.10;101480.53;4954845;29;20039;-90
2022/10/16 04:34:51;;;;;;;23.60;9.00;;;;;;;11.67;63.53;101436.03;4959617;29;20067;-90
2022/10/16 04:37:17;;;;;;;32.95;7.28;;;;;;;11.94;63.32;101478.03;4959090;29;20024;-85
2022/10/16 04:39:43;;;;;;;28.20;7.15;;;;;;;12.34;62.79;101551.47;4939974;29;20680;-81
2022/10/16 04:42:09;;;;;;;27.73;6.68;;;;;;;11.95;62.82;101484.31;4938038;29;20116;-83
2022/10/16 04:44:34;;;;;;;44.45;8.07;;;;;;;12.17;62.61;101514.06;4938070;29;20030;-83
2022/10/16 04:46:59;;;;;;;44.47;8.25;;;;;;;12.21;62.37;101507.50;4938070;29;20040;-82
2022/10/16 04:49:25;;;;;;;16.73;7.18;;;;;;;12.32;62.06;101517.50;4937905;29;20090;-82
2022/10/16 04:51:50;;;;;;;12.25;5.50;;;;;;;11.98;61.76;101457.13;4938275;29;20034;-81
2022/10/16 04:54:16;;;;;;;11.57;6.97;;;;;;;12.41;61.66;101519.50;4951703;29;20051;-80
2022/10/16 04:56:47;;;;;;;13.23;6.05;;;;;;;12.25;61.85;101508.13;4957010;29;20093;-81
2022/10/16 04:59:15;;;;;;;16.85;6.15;;;;;;;12.06;61.78;101448.44;4957702;29;20027;-84
2022/10/16 05:01:44;;;;;;;10.43;5.82;;;;;;;11.93;61.37;101453.88;4958117;29;20024;-84
2022/10/16 05:04:23;;;;;;;13.27;6.28;;;;;;;11.89;61.56;101445.19;4957826;29;20050;-84
2022/10/16 05:06:49;;;;;;;11.40;5.40;;;;;;;11.68;61.73;101443.16;4957128;29;20507;-84
2022/10/16 05:09:17;;;;;;;13.23;5.55;;;;;;;11.57;61.65;101400.81;4957229;29;20058;-83
2022/10/16 05:11:43;;;;;;;19.30;6.80;;;;;;;12.73;61.64;101589.94;4957933;28;20035;-83
2022/10/16 05:14:08;;;;;;;26.55;6.18;;;;;;;12.20;61.07;101500.38;4956850;29;20035;-82
2022/10/16 05:16:34;;;;;;;29.27;8.85;;;;;;;12.60;60.87;101544.13;4956809;29;20031;-88
2022/10/16 05:18:59;;;;;;;15.52;5.90;;;;;;;12.83;60.06;101583.75;4956213;29;20031;-86
2022/10/16 05:21:25;;;;;;;47.60;8.65;;;;;;;12.87;60.52;101593.31;4963436;29;20032;-88
2022/10/16 05:23:50;;;;;;;9.23;5.05;;;;;;;12.90;60.11;101598.47;4970862;29;20107;-82
2022/10/16 05:26:15;;;;;;;11.30;5.47;;;;;;;12.98;59.71;101612.28;4965746;28;20031;-82
2022/10/16 05:28:41;;;;;;;14.38;5.50;;;;;;;12.65;59.79;101565.38;4956063;29;20023;-80
2022/10/16 05:31:08;;;;;;;14.75;6.57;;;;;;;12.92;59.97;101606.47;4954740;29;20035;-81
2022/10/16 05:33:34;;;;;;;21.48;5.63;;;;;;;13.04;60.19;101617.22;4956109;29;20035;-80
2022/10/16 05:36:07;;;;;;;18.55;6.03;;;;;;;12.21;59.99;101467.03;4956383;29;20063;-85
2022/10/16 05:38:34;;;;;;;8.30;4.22;;;;;;;12.69;60.04;101546.13;4957619;29;20502;-84
2022/10/16 05:41:00;;;;;;;15.15;6.03;;;;;;;13.29;59.88;101615.38;4965578;29;20104;-84
2022/10/16 05:43:27;;;;;;;250.40;22.80;;;;;;;12.68;59.66;101517.44;4969940;29;20055;-83
2022/10/16 05:45:56;;;;;;;14.73;5.78;;;;;;;12.95;58.77;101553.13;4965770;29;20086;-84
2022/10/16 05:48:23;;;;;;;18.35;6.13;;;;;;;13.35;58.63;101598.69;4991234;28;20063;-82
2022/10/16 05:50:48;;;;;;;14.10;6.05;;;;;;;13.27;59.10;101576.81;4975731;28;20058;-89
2022/10/16 05:53:14;;;;;;;14.88;6.43;;;;;;;13.40;58.51;101588.38;4964597;28;20059;-82
2022/10/16 05:55:39;;;;;;;33.00;7.40;;;;;;;13.07;58.42;101541.38;4953334;29;20027;-83
2022/10/16 05:58:05;;;;;;;19.50;6.47;;;;;;;13.19;58.37;101554.91;4954921;28;20035;-82
2022/10/16 06:00:30;;;;;;;25.45;6.55;;;;;;;13.63;58.36;101641.53;4955550;29;20031;-80
2022/10/16 06:02:56;;;;;;;19.50;6.82;;;;;;;13.39;58.20;101575.88;4952618;28;20392;-81
2022/10/16 06:05:21;;;;;;;11.38;5.82;;;;;;;13.62;58.09;101605.50;4952139;28;20027;-80
2022/10/16 06:07:47;;;;;;;15.73;6.45;;;;;;;13.66;57.87;101619.66;4952275;29;20075;-79
2022/10/16 06:10:12;;;;;;;13.98;5.82;;;;;;;13.68;58.11;101625.78;4951920;29;20090;-79
2022/10/16 06:12:37;;;;;;;21.02;7.07;;;;;;;13.62;57.75;101613.63;4951939;28;20027;-81
2022/10/16 06:15:03;;;;;;;21.48;6.18;;;;;;;13.70;58.08;101610.28;4952712;29;20035;-81
2022/10/16 06:17:29;;;;;;;13.75;5.47;;;;;;;13.79;57.94;101623.09;4952449;28;20031;-83
2022/10/16 06:19:54;;;;;;;20.63;5.25;;;;;;;13.98;57.35;101620.66;4952806;29;20030;-83
2022/10/16 06:22:20;;;;;;;87.93;11.07;;;;;;;13.87;57.37;101590.91;4952900;28;20065;-86
2022/10/16 06:24:46;;;;;;;13.98;4.68;;;;;;;14.05;57.03;101619.19;4953574;29;20089;-81
2022/10/16 06:27:11;;;;;;;11.68;6.15;;;;;;;13.92;56.95;101567.06;4953612;28;20062;-83
2022/10/16 06:29:37;;;;;;;33.08;5.00;;;;;;;14.26;56.54;101603.06;4953777;28;20050;-82
2022/10/16 06:32:02;;;;;;;10.32;4.00;;;;;;;13.85;57.58;101570.38;4953208;29;20031;-82
2022/10/16 06:34:27;;;;;;;8.38;3.95;;;;;;;14.16;57.33;101600.22;4953572;29;20031;-84
2022/10/16 06:36:53;;;;;;;28.15;5.25;;;;;;;14.53;57.24;101648.69;4951950;28;20037;-85
2022/10/16 06:39:18;;;;;;;28.52;4.30;;;;;;;14.60;56.71;101639.97;4952600;29;20096;-88
2022/10/16 06:41:44;;;;;;;103.93;11.13;;;;;;;14.67;56.76;101661.97;4954177;28;20035;-85
2022/10/16 06:44:09;;;;;;;16.70;4.03;;;;;;;14.77;56.95;101656.69;4953003;28;20031;-88
2022/10/16 06:46:35;;;;;;;15.52;3.90;;;;;;;14.74;56.73;101648.81;4953972;28;20086;-84
2022/10/16 06:49:00;;;;;;;35.90;4.03;;;;;;;14.81;56.25;101634.59;4954300;28;20086;-88
2022/10/16 06:51:26;;;;;;;12.82;3.47;;;;;;;15.01;56.02;101665.47;4953744;28;20467;-81
2022/10/16 06:53:58;;;;;;;24.23;5.07;;;;;;;14.89;56.39;101637.53;4960161;29;20047;-85
2022/10/16 06:56:25;;;;;;;57.22;5.43;;;;;;;15.20;56.38;101676.47;4958588;29;20114;-87
2022/10/16 06:58:52;;;;;;;20.48;3.30;;;;;;;14.60;56.22;101572.28;4961538;29;20035;-86
2022/10/16 07:01:19;;;;;;;29.88;5.22;;;;;;;15.17;55.64;101655.91;4972595;28;20011;-91
2022/10/16 07:03:46;;;;;;;52.42;5.78;;;;;;;15.47;55.74;101674.16;4976153;28;20015;-92
2022/10/16 07:06:14;;;;;;;29.15;4.65;;;;;;;15.46;55.50;101687.84;4974533;28;20027;-85
2022/10/16 07:08:41;;;;;;;32.50;8.27;;;;;;;15.46;55.75;101675.13;4956258;29;20039;-85
2022/10/16 07:11:10;;;;;;;22.13;4.68;;;;;;;15.66;54.92;101689.72;4955710;29;20042;-86
2022/10/16 07:13:37;;;;;;;28.65;4.68;;;;;;;15.58;54.89;101674.13;4955857;28;20038;-85
2022/10/16 07:16:17;;;;;;;55.65;4.93;;;;;;;15.77;54.60;101692.38;4955262;29;20121;-84
2022/10/16 07:18:45;;;;;;;15.30;4.95;;;;;;;15.51;54.48;101653.06;4954732;29;20050;-85
2022/10/16 07:21:20;;;;;;;25.00;4.72;;;;;;;15.84;54.39;101696.28;4950070;29;20104;-82
2022/10/16 07:23:51;;;;;;;17.90;3.30;;;;;;;15.91;54.13;101694.75;4941744;29;20074;-85
2022/10/16 07:26:16;;;;;;;15.68;3.65;;;;;;;16.01;54.00;101703.81;4941540;29;20048;-82
2022/10/16 07:28:43;;;;;;;36.83;6.63;;;;;;;16.03;54.05;101699.13;4932859;29;20032;-81
2022/10/16 07:31:11;;;;;;;15.13;3.67;;;;;;;15.92;53.54;101658.50;4931515;29;20098;-82
2022/10/16 07:33:39;;;;;;;16.30;3.22;;;;;;;16.09;53.21;101674.16;4934094;29;20130;-83
2022/10/16 07:36:05;;;;;;;12.93;3.42;;;;;;;16.22;53.32;101699.22;4942483;29;20040;-85
2022/10/16 07:38:31;;;;;;;5.25;2.92;;;;;;;16.16;52.93;101685.34;4940153;29;20067;-85
2022/10/16 07:40:58;;;;;;;57.72;4.70;;;;;;;16.33;52.58;101682.84;4940654;29;20086;-83
2022/10/16 07:43:25;;;;;;;23.33;4.35;;;;;;;16.18;52.22;101657.06;4919903;29;20072;-88
2022/10/16 07:45:50;;;;;;;26.38;3.88;;;;;;;16.43;52.21;101684.75;4933631;29;20119;-84
2022/10/16 07:48:17;;;;;;;21.10;3.47;;;;;;;16.54;51.53;101703.66;4934601;29;20074;-81
2022/10/16 07:50:43;;;;;;;42.78;3.92;;;;;;;16.43;51.67;101684.75;4938907;29;20116;-82
2022/10/16 07:53:09;;;;;;;16.83;3.10;;;;;;;16.40;51.27;101675.00;4957023;29;20043;-81
2022/10/16 07:55:35;;;;;;;11.30;2.25;;;;;;;16.55;51.46;101678.25;4958096;29;20043;-80
2022/10/16 07:58:00;;;;;;;15.70;3.08;;;;;;;16.40;51.23;101636.13;4957093;29;20034;-81
2022/10/16 08:00:26;;;;;;;16.90;3.72;;;;;;;16.68;51.17;101658.00;4957820;28;20059;-82
2022/10/16 08:02:51;;;;;;;16.55;3.42;;;;;;;16.83;50.87;101666.59;4958096;29;20031;-81
2022/10/16 08:05:17;;;;;;;25.77;2.90;;;;;;;16.70;49.49;101633.38;4960406;29;20479;-82
2022/10/16 08:07:42;;;;;;;43.67;4.15;;;;;;;17.00;49.02;101670.50;4960193;29;20031;-80
2022/10/16 08:10:19;;;;;;;18.80;3.90;;;;;;;17.05;48.92;101669.09;4961083;29;20031;-81
2022/10/16 08:12:45;;;;;;;25.35;3.60;;;;;;;17.27;48.48;101720.50;4964326;28;20031;-81
2022/10/16 08:15:11;;;;;;;25.85;3.58;;;;;;;17.27;48.42;101712.31;4974780;28;20027;-90
2022/10/16 08:17:37;;;;;;;38.33;4.47;;;;;;;16.96;49.00;101637.31;4976363;29;20027;-91
2022/10/16 08:20:03;;;;;;;46.65;4.93;;;;;;;17.36;48.74;101681.56;4976007;28;20023;-84
2022/10/16 08:22:28;;;;;;;42.25;5.28;;;;;;;17.59;48.36;101692.16;4958622;29;20042;-82
2022/10/16 08:24:54;;;;;;;16.15;4.10;;;;;;;17.49;47.67;101677.69;4957755;29;20571;-81
2022/10/16 08:27:19;;;;;;;23.58;4.35;;;;;;;17.39;47.62;101635.03;4958258;29;20023;-81
2022/10/16 08:29:45;;;;;;;14.40;2.75;;;;;;;17.81;46.80;101697.31;4958624;28;20035;-85
2022/10/16 08:32:11;;;;;;;13.35;3.67;;;;;;;17.75;46.74;101666.09;4958673;29;20066;-84
2022/10/16 08:34:39;;;;;;;17.30;4.00;;;;;;;17.28;46.65;101588.94;4959272;29;20031;-82
2022/10/16 08:37:04;;;;;;;41.55;5.07;;;;;;;17.56;46.31;101621.72;4958266;29;20073;-83
2022/10/16 08:39:30;;;;;;;28.05;5.72;;;;;;;17.70;46.36;101613.13;4957989;28;20031;-82
2022/10/16 08:42:14;;;;;;;22.00;3.97;;;;;;;18.39;45.49;101708.91;4958243;29;20137;-82
2022/10/16 08:45:18;;;;;;;31.67;7.30;;;;;;;17.91;45.16;101630.97;4958577;29;20046;-82
2022/10/16 08:48:17;;;;;;;22.40;3.75;;;;;;;18.35;44.79;101680.22;4917278;29;20040;-81
2022/10/16 08:50:43;;;;;;;42.15;4.90;;;;;;;18.03;44.75;101637.09;4917731;29;20067;-83
2022/10/16 08:53:17;;;;;;;17.92;3.88;;;;;;;18.56;44.20;101704.59;4901340;29;20538;-83
2022/10/16 08:55:50;;;;;;;26.17;3.80;;;;;;;17.86;44.08;101624.22;4918652;29;20104;-83
2022/10/16 08:58:19;;;;;;;20.55;3.85;;;;;;;18.53;44.44;101721.22;4918963;29;20752;-84
2022/10/16 09:00:50;;;;;;;31.58;5.05;;;;;;;18.52;44.49;101719.50;4916806;29;20039;-82
2022/10/16 09:03:27;;;;;;;84.60;7.33;;;;;;;18.57;44.49;101719.91;4915863;29;20099;-82
2022/10/16 09:06:11;;;;;;;12.27;4.07;;;;;;;18.67;44.20;101727.03;4916226;29;20032;-86
2022/10/16 09:08:43;;;;;;;23.70;4.45;;;;;;;18.71;43.70;101720.28;4915336;29;20032;-80
2022/10/16 09:11:44;;;;;;;53.28;6.35;;;;;;;18.52;43.46;101667.72;4914959;29;20059;-81
2022/10/16 09:14:40;;;;;;;70.00;6.53;;;;;;;19.00;42.88;101726.44;4859992;29;20053;-83
2022/10/16 09:17:15;;;;;;;30.38;4.78;;;;;;;18.97;42.90;101709.50;4862548;29;20072;-85
2022/10/16 09:19:54;;;;;;;19.63;3.45;;;;;;;19.22;42.64;101733.34;4861970;29;20053;-82
2022/10/16 09:22:25;;;;;;;37.70;4.57;;;;;;;18.77;42.29;101642.50;4865958;29;20033;-82
2022/10/16 09:24:50;;;;;;;20.10;3.30;;;;;;;19.05;42.46;101687.78;4880040;29;20076;-79
2022/10/16 09:27:16;;;;;;;39.10;3.40;;;;;;;18.95;42.55;101697.91;4883528;29;20025;-88
2022/10/16 09:29:41;;;;;;;32.85;4.13;;;;;;;19.18;42.24;101723.72;4898688;29;20073;-85
2022/10/16 09:32:12;;;;;;;14.75;4.15;;;;;;;18.77;42.43;101642.50;4882578;29;20132;-87
2022/10/16 09:34:45;;;;;;;15.80;3.58;;;;;;;18.83;42.10;101650.06;4887296;29;20037;-81
2022/10/16 09:37:14;;;;;;;18.65;3.78;;;;;;;19.35;42.49;101725.63;4876740;29;20105;-80
2022/10/16 09:39:49;;;;;;;26.17;3.88;;;;;;;19.46;41.97;101728.16;4876223;29;20032;-81
2022/10/16 09:42:25;;;;;;;33.55;5.72;;;;;;;19.57;42.11;101718.88;4874330;29;20147;-77
2022/10/16 09:44:53;;;;;;;31.73;3.80;;;;;;;19.68;42.16;101702.25;4877336;29;20044;-81
2022/10/16 09:47:22;;;;;;;38.53;5.40;;;;;;;19.54;40.98;101676.38;4879182;29;20035;-82
2022/10/16 09:49:55;;;;;;;39.45;5.13;;;;;;;19.66;40.94;101689.78;4882980;29;20039;-84
2022/10/16 09:52:21;;;;;;;13.98;2.63;;;;;;;19.74;40.90;101676.19;4957462;29;20789;-84
2022/10/16 09:54:58;;;;;;;13.75;3.63;;;;;;;19.91;40.62;101705.34;4953476;28;20478;-77
2022/10/16 09:57:25;;;;;;;17.02;3.78;;;;;;;19.96;40.66;101711.19;4951826;28;20043;-79
2022/10/16 09:59:51;;;;;;;10.18;2.35;;;;;;;19.94;40.38;101713.22;4952122;28;20035;-78
2022/10/16 10:02:19;;;;;;;32.63;3.88;;;;;;;19.96;39.75;101687.47;4952249;28;20038;-79
2022/10/16 10:04:53;;;;;;;35.63;4.38;;;;;;;19.98;39.75;101670.91;4952070;28;20031;-80
2022/10/16 10:07:25;;;;;;;22.95;4.45;;;;;;;20.30;39.96;101712.16;4951809;28;20105;-77
2022/10/16 10:09:51;;;;;;;9.82;2.20;;;;;;;20.19;39.72;101698.72;4951841;28;20039;-79
2022/10/16 10:12:27;;;;;;;25.77;3.83;;;;;;;20.31;40.11;101700.19;4951382;28;20050;-79
2022/10/16 10:14:55;;;;;;;57.10;5.47;;;;;;;20.12;39.64;101651.19;4951348;28;20035;-79
2022/10/16 10:17:24;;;;;;;25.27;3.55;;;;;;;20.36;38.95;101711.50;4951594;28;20116;-81
2022/10/16 10:19:52;;;;;;;29.25;3.47;;;;;;;20.26;38.84;101705.28;4951743;28;20035;-79
2022/10/16 10:22:31;;;;;;;9.23;3.30;;;;;;;20.06;39.60;101688.22;4951269;28;20508;-81
2022/10/16 10:25:19;;;;;;;147.52;9.75;;;;;;;20.12;39.57;101685.88;4951728;28;20035;-79
2022/10/16 10:28:25;;;;;;;27.40;5.68;;;;;;;20.27;39.63;101687.88;4951141;29;20093;-79
2022/10/16 10:31:12;;;;;;;17.92;3.78;;;;;;;20.47;39.09;101699.41;4910463;29;20069;-78
2022/10/16 10:34:11;;;;;;;20.23;4.43;;;;;;;20.61;38.76;101701.53;4912156;29;20603;-78
2022/10/16 10:36:39;;;;;;;11.77;3.00;;;;;;;20.51;38.53;101685.28;4912057;29;20412;-79
2022/10/16 10:39:15;;;;;;;9.80;3.42;;;;;;;20.46;38.84;101657.56;4911320;29;20143;-78
2022/10/16 10:42:08;;;;;;;10.77;2.92;;;;;;;20.88;38.84;101703.19;4918573;29;20573;-78
2022/10/16 10:44:42;;;;;;;17.15;2.35;;;;;;;21.16;38.15;101716.47;4925936;29;20472;-79
2022/10/16 10:47:21;;;;;;;35.42;3.47;;;;;;;21.18;37.75;101713.59;4927016;29;20131;-78
2022/10/16 10:50:05;;;;;;;57.80;5.25;;;;;;;21.16;37.90;101718.34;4910363;29;20028;-78
2022/10/16 10:52:34;;;;;;;87.97;5.40;;;;;;;21.12;37.72;101703.31;4909668;29;20221;-77
2022/10/16 10:55:10;;;;;;;16.00;2.88;;;;;;;20.86;37.35;101656.84;4909671;29;20048;-78
2022/10/16 10:57:42;;;;;;;6.18;2.45;;;;;;;20.94;37.12;101673.31;4911269;29;20028;-78
2022/10/16 11:00:27;;;;;;;24.88;4.15;;;;;;;21.12;37.61;101692.38;4910466;29;20119;-78
2022/10/16 11:03:14;;;;;;;13.55;3.00;;;;;;;20.92;38.02;101627.97;4910400;29;20028;-78
2022/10/16 11:05:45;;;;;;;14.95;3.05;;;;;;;21.34;37.21;101685.41;4910260;29;20164;-79
2022/10/16 11:08:33;;;;;;;53.83;5.57;;;;;;;21.16;37.48;101661.75;4949925;29;20039;-78
2022/10/16 11:11:03;;;;;;;28.27;3.05;;;;;;;21.24;37.47;101674.59;4949902;29;20623;-77
2022/10/16 11:13:59;;;;;;;50.83;4.85;;;;;;;21.45;37.07;101671.38;4951224;28;20082;-78
2022/10/16 11:16:31;;;;;;;32.53;3.70;;;;;;;21.63;37.02;101681.13;4951233;28;20058;-78
2022/10/16 11:19:19;;;;;;;38.58;4.43;;;;;;;21.41;35.84;101681.78;4951163;29;20090;-77
2022/10/16 11:21:59;;;;;;;19.58;3.17;;;;;;;21.15;36.19;101653.72;4951422;29;20042;-78
2022/10/16 11:24:51;;;;;;;21.27;6.75;;;;;;;21.40;36.35;101691.06;4950552;28;20117;-77
2022/10/16 11:27:22;;;;;;;60.72;6.50;;;;;;;21.35;36.82;101690.69;4951052;29;20487;-79
2022/10/16 11:30:15;;;;;;;10.25;4.13;;;;;;;21.31;36.55;101689.34;4951023;28;20038;-77
2022/10/16 11:33:02;;;;;;;31.00;3.80;;;;;;;21.44;35.78;101700.63;4891337;29;20076;-77
2022/10/16 11:35:30;;;;;;;16.20;2.45;;;;;;;21.49;35.44;101700.13;4891903;29;20032;-78
2022/10/16 11:37:58;;;;;;;91.88;8.27;;;;;;;21.47;35.57;101691.22;4891777;29;20135;-78
2022/10/16 11:40:23;;;;;;;16.35;2.88;;;;;;;21.55;35.63;101693.97;4891631;29;20029;-77
2022/10/16 11:42:57;;;;;;;15.07;3.92;;;;;;;21.51;36.11;101674.28;4891460;29;20055;-80
2022/10/16 11:45:58;;;;;;;30.70;4.55;;;;;;;21.63;36.18;101675.66;4891711;29;20033;-78
2022/10/16 11:48:35;;;;;;;23.73;3.60;;;;;;;21.69;35.97;101685.94;4838137;29;20064;-77